sensor_id;sensor_type;location;lat;lon;timestamp;pressure;altitude;pressure_sealevel;temperature;humidity
66857;BME280;53766;50.280;19.160;2023-04-28T00:02:02;98895.59;;;17.44;42.40
66857;BME280;53766;50.280;19.160;2023-04-28T00:04:30;98890.28;;;17.44;42.38
66857;BME280;53766;50.280;19.160;2023-04-28T00:06:58;98891.94;;;17.45;42.42
66857;BME280;53766;50.280;19.160;2023-04-28T00:09:25;98891.13;;;17.44;42.47
66857;BME280;53766;50.280;19.160;2023-04-28T00:11:53;98885.97;;;17.43;42.50
66857;BME280;53766;50.280;19.160;2023-04-28T00:14:20;98881.66;;;17.42;42.47
66857;BME280;53766;50.280;19.160;2023-04-28T00:16:48;98886.97;;;17.42;42.38
66857;BME280;53766;50.280;19.160;2023-04-28T00:19:16;98888.66;;;17.43;42.51
66857;BME280;53766;50.280;19.160;2023-04-28T00:21:43;98886.16;;;17.41;42.43
66857;BME280;53766;50.280;19.160;2023-04-28T00:24:10;98885.53;;;17.39;42.34
66857;BME280;53766;50.280;19.160;2023-04-28T00:26:38;98878.38;;;17.40;42.37
66857;BME280;53766;50.280;19.160;2023-04-28T00:29:05;98878.38;;;17.40;42.43
66857;BME280;53766;50.280;19.160;2023-04-28T00:31:33;98884.53;;;17.40;42.47
66857;BME280;53766;50.280;19.160;2023-04-28T00:34:01;98885.53;;;17.39;42.36
66857;BME280;53766;50.280;19.160;2023-04-28T00:36:29;98883.72;;;17.40;42.46
66857;BME280;53766;50.280;19.160;2023-04-28T00:38:59;98884.69;;;17.39;42.27
66857;BME280;53766;50.280;19.160;2023-04-28T00:41:26;98885.72;;;17.38;42.45
66857;BME280;53766;50.280;19.160;2023-04-28T00:43:53;98884.69;;;17.39;42.43
66857;BME280;53766;50.280;19.160;2023-04-28T00:46:28;98885.72;;;17.38;42.47
66857;BME280;53766;50.280;19.160;2023-04-28T00:48:56;98883.06;;;17.38;42.44
66857;BME280;53766;50.280;19.160;2023-04-28T00:51:24;98882.22;;;17.37;42.33
66857;BME280;53766;50.280;19.160;2023-04-28T00:53:53;98878.75;;;17.37;42.38
66857;BME280;53766;50.280;19.160;2023-04-28T00:56:21;98885.09;;;17.36;42.51
66857;BME280;53766;50.280;19.160;2023-04-28T00:58:48;98882.44;;;17.36;42.47
66857;BME280;53766;50.280;19.160;2023-04-28T01:01:16;98882.44;;;17.36;42.33
66857;BME280;53766;50.280;19.160;2023-04-28T01:03:44;98885.09;;;17.36;42.48
66857;BME280;53766;50.280;19.160;2023-04-28T01:06:12;98881.56;;;17.35;42.37
66857;BME280;53766;50.280;19.160;2023-04-28T01:08:40;98886.09;;;17.35;42.39
66857;BME280;53766;50.280;19.160;2023-04-28T01:11:09;98886.25;;;17.33;42.30
66857;BME280;53766;50.280;19.160;2023-04-28T01:13:40;98896.72;;;17.35;42.31
66857;BME280;53766;50.280;19.160;2023-04-28T01:16:07;98889.78;;;17.34;42.35
66857;BME280;53766;50.280;19.160;2023-04-28T01:18:35;98880.94;;;17.33;42.27
66857;BME280;53766;50.280;19.160;2023-04-28T01:21:03;98890.75;;;17.33;42.38
66857;BME280;53766;50.280;19.160;2023-04-28T01:23:31;98882.78;;;17.33;42.38
66857;BME280;53766;50.280;19.160;2023-04-28T01:25:58;98882.78;;;17.33;42.42
66857;BME280;53766;50.280;19.160;2023-04-28T01:28:26;98875.81;;;17.32;42.42
66857;BME280;53766;50.280;19.160;2023-04-28T01:30:53;98881.97;;;17.32;42.51
66857;BME280;53766;50.280;19.160;2023-04-28T01:33:22;98881.13;;;17.32;42.44
66857;BME280;53766;50.280;19.160;2023-04-28T01:35:50;98881.13;;;17.32;42.42
66857;BME280;53766;50.280;19.160;2023-04-28T01:38:17;98879.47;;;17.31;42.40
66857;BME280;53766;50.280;19.160;2023-04-28T01:40:44;98876.81;;;17.31;42.50
66857;BME280;53766;50.280;19.160;2023-04-28T01:43:12;98873.34;;;17.30;42.34
66857;BME280;53766;50.280;19.160;2023-04-28T01:45:42;98877.84;;;17.30;42.29
66857;BME280;53766;50.280;19.160;2023-04-28T01:48:10;98876.16;;;17.28;42.51
66857;BME280;53766;50.280;19.160;2023-04-28T01:50:38;98888.50;;;17.30;42.31
66857;BME280;53766;50.280;19.160;2023-04-28T01:53:05;98879.84;;;17.27;42.48
66857;BME280;53766;50.280;19.160;2023-04-28T01:55:32;98883.50;;;17.26;42.34
66857;BME280;53766;50.280;19.160;2023-04-28T01:58:00;98885.19;;;17.27;42.36
66857;BME280;53766;50.280;19.160;2023-04-28T02:00:27;98883.50;;;17.26;42.38
66857;BME280;53766;50.280;19.160;2023-04-28T02:02:54;98889.69;;;17.27;42.44
66857;BME280;53766;50.280;19.160;2023-04-28T02:05:22;98879.03;;;17.27;42.38
66857;BME280;53766;50.280;19.160;2023-04-28T02:07:50;98881.88;;;17.25;42.38
66857;BME280;53766;50.280;19.160;2023-04-28T02:10:17;98875.75;;;17.25;42.52
66857;BME280;53766;50.280;19.160;2023-04-28T02:12:44;98881.06;;;17.25;42.34
66857;BME280;53766;50.280;19.160;2023-04-28T02:15:12;98881.06;;;17.25;42.37
66857;BME280;53766;50.280;19.160;2023-04-28T02:17:40;98873.25;;;17.23;42.26
66857;BME280;53766;50.280;19.160;2023-04-28T02:20:08;98874.06;;;17.24;42.44
66857;BME280;53766;50.280;19.160;2023-04-28T02:22:35;98874.88;;;17.24;42.36
66857;BME280;53766;50.280;19.160;2023-04-28T02:25:03;98875.09;;;17.23;42.37
66857;BME280;53766;50.280;19.160;2023-04-28T02:27:30;98871.63;;;17.22;42.43
66857;BME280;53766;50.280;19.160;2023-04-28T02:29:58;98876.09;;;17.22;42.29
66857;BME280;53766;50.280;19.160;2023-04-28T02:32:25;98870.78;;;17.22;42.31
66857;BME280;53766;50.280;19.160;2023-04-28T02:34:54;98870.78;;;17.22;42.44
66857;BME280;53766;50.280;19.160;2023-04-28T02:37:21;98857.66;;;17.20;42.30
66857;BME280;53766;50.280;19.160;2023-04-28T02:39:49;98859.31;;;17.21;42.33
66857;BME280;53766;50.280;19.160;2023-04-28T02:42:16;98859.31;;;17.21;42.30
66857;BME280;53766;50.280;19.160;2023-04-28T02:44:44;98859.31;;;17.21;42.43
66857;BME280;53766;50.280;19.160;2023-04-28T02:47:11;98855.00;;;17.20;42.38
66857;BME280;53766;50.280;19.160;2023-04-28T02:49:39;98860.31;;;17.20;42.27
66857;BME280;53766;50.280;19.160;2023-04-28T02:52:06;98861.31;;;17.19;42.25
66857;BME280;53766;50.280;19.160;2023-04-28T02:54:34;98856.00;;;17.19;42.34
66857;BME280;53766;50.280;19.160;2023-04-28T02:57:03;98860.50;;;17.19;42.37
66857;BME280;53766;50.280;19.160;2023-04-28T02:59:33;98858.03;;;17.17;42.38
66857;BME280;53766;50.280;19.160;2023-04-28T03:02:01;98859.69;;;17.18;42.32
66857;BME280;53766;50.280;19.160;2023-04-28T03:04:29;98859.03;;;17.16;42.24
66857;BME280;53766;50.280;19.160;2023-04-28T03:06:56;98864.16;;;17.18;42.35
66857;BME280;53766;50.280;19.160;2023-04-28T03:09:24;98863.34;;;17.17;42.38
66857;BME280;53766;50.280;19.160;2023-04-28T03:11:52;98858.03;;;17.17;42.38
66857;BME280;53766;50.280;19.160;2023-04-28T03:14:19;98856.38;;;17.16;42.41
66857;BME280;53766;50.280;19.160;2023-04-28T03:16:46;98844.88;;;17.16;42.38
66857;BME280;53766;50.280;19.160;2023-04-28T03:19:14;98845.75;;;17.16;42.37
66857;BME280;53766;50.280;19.160;2023-04-28T03:21:41;98844.06;;;17.15;42.40
66857;BME280;53766;50.280;19.160;2023-04-28T03:24:09;98854.72;;;17.15;42.45
66857;BME280;53766;50.280;19.160;2023-04-28T03:26:36;98854.94;;;17.14;42.45
66857;BME280;53766;50.280;19.160;2023-04-28T03:29:04;98851.41;;;17.13;42.31
66857;BME280;53766;50.280;19.160;2023-04-28T03:31:31;98850.41;;;17.14;42.29
66857;BME280;53766;50.280;19.160;2023-04-28T03:33:58;98851.41;;;17.13;42.31
66857;BME280;53766;50.280;19.160;2023-04-28T03:36:26;98851.41;;;17.13;42.35
66857;BME280;53766;50.280;19.160;2023-04-28T03:38:53;98846.09;;;17.13;42.46
66857;BME280;53766;50.280;19.160;2023-04-28T03:41:21;98847.94;;;17.13;42.27
66857;BME280;53766;50.280;19.160;2023-04-28T03:43:48;98846.09;;;17.13;42.27
66857;BME280;53766;50.280;19.160;2023-04-28T03:46:16;98846.09;;;17.13;42.28
66857;BME280;53766;50.280;19.160;2023-04-28T03:48:44;98841.78;;;17.12;42.31
66857;BME280;53766;50.280;19.160;2023-04-28T03:51:12;98846.09;;;17.13;42.35
66857;BME280;53766;50.280;19.160;2023-04-28T03:53:39;98844.44;;;17.12;42.28
66857;BME280;53766;50.280;19.160;2023-04-28T03:56:07;98842.78;;;17.11;42.23
66857;BME280;53766;50.280;19.160;2023-04-28T03:58:34;98840.97;;;17.12;42.27
66857;BME280;53766;50.280;19.160;2023-04-28T04:01:02;98843.63;;;17.12;42.26
66857;BME280;53766;50.280;19.160;2023-04-28T04:03:30;98837.47;;;17.11;42.16
66857;BME280;53766;50.280;19.160;2023-04-28T04:05:57;98849.78;;;17.12;42.30
66857;BME280;53766;50.280;19.160;2023-04-28T04:08:25;98842.78;;;17.11;42.25
66857;BME280;53766;50.280;19.160;2023-04-28T04:10:52;98840.13;;;17.11;42.13
66857;BME280;53766;50.280;19.160;2023-04-28T04:13:22;98848.97;;;17.12;42.21
66857;BME280;53766;50.280;19.160;2023-04-28T04:15:49;98844.44;;;17.12;42.31
66857;BME280;53766;50.280;19.160;2023-04-28T04:18:18;98847.94;;;17.13;42.28
66857;BME280;53766;50.280;19.160;2023-04-28T04:20:46;98849.78;;;17.12;42.13
66857;BME280;53766;50.280;19.160;2023-04-28T04:23:14;98849.78;;;17.12;42.18
66857;BME280;53766;50.280;19.160;2023-04-28T04:25:41;98855.91;;;17.13;42.28
66857;BME280;53766;50.280;19.160;2023-04-28T04:28:09;98851.41;;;17.13;42.24
66857;BME280;53766;50.280;19.160;2023-04-28T04:30:36;98869.06;;;17.14;42.21
66857;BME280;53766;50.280;19.160;2023-04-28T04:33:04;98860.03;;;17.15;42.21
66857;BME280;53766;50.280;19.160;2023-04-28T04:35:31;98864.16;;;17.18;42.11
66857;BME280;53766;50.280;19.160;2023-04-28T04:37:59;98866.66;;;17.19;42.25
66857;BME280;53766;50.280;19.160;2023-04-28T04:40:27;98863.34;;;17.17;42.37
66857;BME280;53766;50.280;19.160;2023-04-28T04:42:55;98869.22;;;17.27;42.16
66857;BME280;53766;50.280;19.160;2023-04-28T04:45:22;98866.44;;;17.36;42.00
66857;BME280;53766;50.280;19.160;2023-04-28T04:47:50;98865.16;;;17.32;42.21
66857;BME280;53766;50.280;19.160;2023-04-28T04:50:18;98874.16;;;17.31;42.07
66857;BME280;53766;50.280;19.160;2023-04-28T04:52:46;98868.81;;;17.31;42.04
66857;BME280;53766;50.280;19.160;2023-04-28T04:55:13;98876.00;;;17.30;42.13
66857;BME280;53766;50.280;19.160;2023-04-28T04:57:40;98873.16;;;17.32;42.18
66857;BME280;53766;50.280;19.160;2023-04-28T05:00:08;98873.34;;;17.30;42.28
66857;BME280;53766;50.280;19.160;2023-04-28T05:02:36;98872.50;;;17.30;42.28
66857;BME280;53766;50.280;19.160;2023-04-28T05:05:04;98875.19;;;17.30;42.30
66857;BME280;53766;50.280;19.160;2023-04-28T05:07:47;98872.50;;;17.30;42.29
66857;BME280;53766;50.280;19.160;2023-04-28T05:10:14;98879.22;;;17.25;42.27
66857;BME280;53766;50.280;19.160;2023-04-28T05:12:42;98876.72;;;17.24;42.29
66857;BME280;53766;50.280;19.160;2023-04-28T05:15:13;98874.06;;;17.24;42.34
66857;BME280;53766;50.280;19.160;2023-04-28T05:17:41;98880.59;;;17.21;42.29
66857;BME280;53766;50.280;19.160;2023-04-28T05:20:09;98877.94;;;17.21;42.37
66857;BME280;53766;50.280;19.160;2023-04-28T05:22:39;98878.97;;;17.20;42.18
66857;BME280;53766;50.280;19.160;2023-04-28T05:25:07;98871.97;;;17.19;42.18
66857;BME280;53766;50.280;19.160;2023-04-28T05:27:34;98873.63;;;17.20;41.99
66857;BME280;53766;50.280;19.160;2023-04-28T05:30:06;98874.44;;;17.21;42.04
66857;BME280;53766;50.280;19.160;2023-04-28T05:32:34;98878.97;;;17.20;41.90
66857;BME280;53766;50.280;19.160;2023-04-28T05:35:02;98873.63;;;17.20;41.82
66857;BME280;53766;50.280;19.160;2023-04-28T05:37:30;98875.28;;;17.21;41.79
66857;BME280;53766;50.280;19.160;2023-04-28T05:39:57;98876.31;;;17.20;41.78
66857;BME280;53766;50.280;19.160;2023-04-28T05:42:25;98871.78;;;17.21;41.76
66857;BME280;53766;50.280;19.160;2023-04-28T05:44:52;98878.09;;;17.20;41.58
66857;BME280;53766;50.280;19.160;2023-04-28T05:47:20;98869.13;;;17.21;41.60
66857;BME280;53766;50.280;19.160;2023-04-28T05:49:47;98868.31;;;17.20;41.53
66857;BME280;53766;50.280;19.160;2023-04-28T05:52:15;98863.00;;;17.20;41.45
66857;BME280;53766;50.280;19.160;2023-04-28T05:54:42;98869.13;;;17.21;41.48
66857;BME280;53766;50.280;19.160;2023-04-28T05:57:10;98871.63;;;17.22;41.30
66857;BME280;53766;50.280;19.160;2023-04-28T05:59:37;98868.31;;;17.20;41.24
66857;BME280;53766;50.280;19.160;2023-04-28T06:02:05;98870.97;;;17.20;41.11
66857;BME280;53766;50.280;19.160;2023-04-28T06:04:33;98866.47;;;17.21;41.12
66857;BME280;53766;50.280;19.160;2023-04-28T06:07:01;98860.31;;;17.20;41.01
66857;BME280;53766;50.280;19.160;2023-04-28T06:09:28;98868.31;;;17.20;41.03
66857;BME280;53766;50.280;19.160;2023-04-28T06:11:56;98872.59;;;17.21;40.91
66857;BME280;53766;50.280;19.160;2023-04-28T06:14:23;98867.28;;;17.21;40.96
66857;BME280;53766;50.280;19.160;2023-04-28T06:16:51;98872.59;;;17.21;41.13
66857;BME280;53766;50.280;19.160;2023-04-28T06:19:18;98869.13;;;17.21;40.98
66857;BME280;53766;50.280;19.160;2023-04-28T06:21:46;98868.31;;;17.20;40.84
66857;BME280;53766;50.280;19.160;2023-04-28T06:24:16;98863.97;;;17.19;40.76
66857;BME280;53766;50.280;19.160;2023-04-28T06:26:44;98873.63;;;17.20;40.74
66857;BME280;53766;50.280;19.160;2023-04-28T06:29:11;98876.31;;;17.20;40.59
66857;BME280;53766;50.280;19.160;2023-04-28T06:31:39;98875.28;;;17.21;40.68
66857;BME280;53766;50.280;19.160;2023-04-28T06:34:06;98869.13;;;17.21;40.98
66857;BME280;53766;50.280;19.160;2023-04-28T06:36:34;98858.31;;;17.22;40.50
66857;BME280;53766;50.280;19.160;2023-04-28T06:39:01;98865.44;;;17.22;40.45
66857;BME280;53766;50.280;19.160;2023-04-28T06:41:29;98865.44;;;17.22;40.27
66857;BME280;53766;50.280;19.160;2023-04-28T06:43:57;98870.78;;;17.22;40.23
66857;BME280;53766;50.280;19.160;2023-04-28T06:46:25;98869.78;;;17.23;40.18
66857;BME280;53766;50.280;19.160;2023-04-28T06:48:52;98860.97;;;17.22;40.23
66857;BME280;53766;50.280;19.160;2023-04-28T06:51:20;98858.91;;;17.24;40.19
66857;BME280;53766;50.280;19.160;2023-04-28T06:53:47;98858.91;;;17.24;40.20
66857;BME280;53766;50.280;19.160;2023-04-28T06:56:17;98860.59;;;17.25;39.96
66857;BME280;53766;50.280;19.160;2023-04-28T06:58:45;98848.91;;;17.26;40.05
66857;BME280;53766;50.280;19.160;2023-04-28T07:01:12;98853.25;;;17.27;40.10
66857;BME280;53766;50.280;19.160;2023-04-28T07:03:40;98846.06;;;17.28;40.01
66857;BME280;53766;50.280;19.160;2023-04-28T07:06:08;98847.91;;;17.27;40.04
66857;BME280;53766;50.280;19.160;2023-04-28T07:08:35;98854.88;;;17.28;39.97
66857;BME280;53766;50.280;19.160;2023-04-28T07:11:03;98854.88;;;17.28;39.92
66857;BME280;53766;50.280;19.160;2023-04-28T07:13:31;98855.72;;;17.29;39.89
66857;BME280;53766;50.280;19.160;2023-04-28T07:15:59;98850.41;;;17.29;40.05
66857;BME280;53766;50.280;19.160;2023-04-28T07:18:27;98855.50;;;17.31;39.93
66857;BME280;53766;50.280;19.160;2023-04-28T07:20:55;98847.53;;;17.31;39.96
66857;BME280;53766;50.280;19.160;2023-04-28T07:23:22;98845.72;;;17.31;39.88
66857;BME280;53766;50.280;19.160;2023-04-28T07:25:50;98842.84;;;17.33;39.98
66857;BME280;53766;50.280;19.160;2023-04-28T07:28:17;98847.34;;;17.32;39.87
66857;BME280;53766;50.280;19.160;2023-04-28T07:30:45;98840.19;;;17.33;39.79
66857;BME280;53766;50.280;19.160;2023-04-28T07:33:12;98835.50;;;17.35;39.89
66857;BME280;53766;50.280;19.160;2023-04-28T07:35:40;98834.50;;;17.36;39.80
66857;BME280;53766;50.280;19.160;2023-04-28T07:38:07;98830.81;;;17.37;39.81
66857;BME280;53766;50.280;19.160;2023-04-28T07:40:35;98821.81;;;17.38;39.87
66857;BME280;53766;50.280;19.160;2023-04-28T07:43:02;98823.47;;;17.39;39.86
66857;BME280;53766;50.280;19.160;2023-04-28T07:45:30;98818.13;;;17.39;39.79
66857;BME280;53766;50.280;19.160;2023-04-28T07:47:57;98822.66;;;17.38;39.80
66857;BME280;53766;50.280;19.160;2023-04-28T07:50:25;98823.47;;;17.39;39.80
66857;BME280;53766;50.280;19.160;2023-04-28T07:52:52;98828.78;;;17.39;39.54
66857;BME280;53766;50.280;19.160;2023-04-28T07:55:20;98831.28;;;17.40;39.65
66857;BME280;53766;50.280;19.160;2023-04-28T07:57:47;98826.78;;;17.41;39.68
66857;BME280;53766;50.280;19.160;2023-04-28T08:00:16;98830.06;;;17.43;39.55
66857;BME280;53766;50.280;19.160;2023-04-28T08:02:43;98831.91;;;17.42;39.49
66857;BME280;53766;50.280;19.160;2023-04-28T08:05:11;98821.69;;;17.46;39.46
66857;BME280;53766;50.280;19.160;2023-04-28T08:07:39;98826.03;;;17.47;39.52
66857;BME280;53766;50.280;19.160;2023-04-28T08:10:09;98825.00;;;17.48;39.38
66857;BME280;53766;50.280;19.160;2023-04-28T08:12:37;98819.66;;;17.48;39.34
66857;BME280;53766;50.280;19.160;2023-04-28T08:15:05;98819.50;;;17.50;39.46
66857;BME280;53766;50.280;19.160;2023-04-28T08:17:33;98809.47;;;17.52;39.27
66857;BME280;53766;50.280;19.160;2023-04-28T08:20:01;98809.66;;;17.50;39.25
66857;BME280;53766;50.280;19.160;2023-04-28T08:22:28;98807.63;;;17.52;39.38
66857;BME280;53766;50.280;19.160;2023-04-28T08:24:56;98816.25;;;17.54;39.31
66857;BME280;53766;50.280;19.160;2023-04-28T08:27:23;98812.59;;;17.55;39.26
66857;BME280;53766;50.280;19.160;2023-04-28T08:29:52;98801.94;;;17.55;39.23
66857;BME280;53766;50.280;19.160;2023-04-28T08:32:19;98798.25;;;17.56;39.13
66857;BME280;53766;50.280;19.160;2023-04-28T08:34:47;98797.25;;;17.57;39.22
66857;BME280;53766;50.280;19.160;2023-04-28T08:37:15;98788.22;;;17.58;39.25
66857;BME280;53766;50.280;19.160;2023-04-28T08:39:42;98788.88;;;17.60;39.23
66857;BME280;53766;50.280;19.160;2023-04-28T08:42:09;98794.19;;;17.60;39.07
66857;BME280;53766;50.280;19.160;2023-04-28T08:44:38;98787.84;;;17.61;39.04
66857;BME280;53766;50.280;19.160;2023-04-28T08:47:15;98784.19;;;17.62;39.17
66857;BME280;53766;50.280;19.160;2023-04-28T08:49:43;98792.16;;;17.62;39.08
66857;BME280;53766;50.280;19.160;2023-04-28T08:52:15;98777.81;;;17.63;39.03
66857;BME280;53766;50.280;19.160;2023-04-28T08:54:44;98774.16;;;17.64;39.02
66857;BME280;53766;50.280;19.160;2023-04-28T08:57:14;98777.47;;;17.66;39.04
66857;BME280;53766;50.280;19.160;2023-04-28T08:59:42;98774.97;;;17.65;38.95
66857;BME280;53766;50.280;19.160;2023-04-28T09:02:10;98777.47;;;17.66;38.81
66857;BME280;53766;50.280;19.160;2023-04-28T09:04:38;98778.09;;;17.68;38.93
66857;BME280;53766;50.280;19.160;2023-04-28T09:07:12;98770.91;;;17.69;38.92
66857;BME280;53766;50.280;19.160;2023-04-28T09:09:40;98772.38;;;17.72;38.93
66857;BME280;53766;50.280;19.160;2023-04-28T09:12:07;98767.03;;;17.72;38.85
66857;BME280;53766;50.280;19.160;2023-04-28T09:14:36;98760.72;;;17.73;38.78
66857;BME280;53766;50.280;19.160;2023-04-28T09:17:11;98763.38;;;17.73;38.74
66857;BME280;53766;50.280;19.160;2023-04-28T09:19:40;98762.34;;;17.74;38.92
66857;BME280;53766;50.280;19.160;2023-04-28T09:22:09;98757.03;;;17.74;38.85
66857;BME280;53766;50.280;19.160;2023-04-28T09:24:52;98758.69;;;17.75;38.81
66857;BME280;53766;50.280;19.160;2023-04-28T09:27:26;98756.63;;;17.77;38.65
66857;BME280;53766;50.280;19.160;2023-04-28T09:29:54;98756.63;;;17.77;38.55
66857;BME280;53766;50.280;19.160;2023-04-28T09:32:22;98753.97;;;17.77;38.67
66857;BME280;53766;50.280;19.160;2023-04-28T09:34:53;98755.22;;;17.81;38.70
66857;BME280;53766;50.280;19.160;2023-04-28T09:37:26;98749.28;;;17.79;38.65
66857;BME280;53766;50.280;19.160;2023-04-28T09:40:08;98743.59;;;17.82;38.75
66857;BME280;53766;50.280;19.160;2023-04-28T09:42:40;98734.59;;;17.83;38.61
66857;BME280;53766;50.280;19.160;2023-04-28T09:45:14;98740.75;;;17.83;38.79
66857;BME280;53766;50.280;19.160;2023-04-28T09:47:44;98732.56;;;17.85;38.67
66857;BME280;53766;50.280;19.160;2023-04-28T09:50:14;98730.50;;;17.87;38.50
66857;BME280;53766;50.280;19.160;2023-04-28T09:52:45;98728.47;;;17.89;38.64
66857;BME280;53766;50.280;19.160;2023-04-28T09:55:23;98730.97;;;17.91;38.49
66857;BME280;53766;50.280;19.160;2023-04-28T09:57:53;98721.94;;;17.92;38.46
66857;BME280;53766;50.280;19.160;2023-04-28T10:00:22;98719.50;;;17.90;38.67
66857;BME280;53766;50.280;19.160;2023-04-28T10:02:49;98713.75;;;17.93;38.60
66857;BME280;53766;50.280;19.160;2023-04-28T10:05:20;98705.59;;;17.95;38.64
66857;BME280;53766;50.280;19.160;2023-04-28T10:07:48;98703.72;;;17.95;38.78
66857;BME280;53766;50.280;19.160;2023-04-28T10:10:16;98701.06;;;17.95;38.57
66857;BME280;53766;50.280;19.160;2023-04-28T10:12:44;98706.00;;;17.98;38.71
66857;BME280;53766;50.280;19.160;2023-04-28T10:15:12;98694.34;;;17.99;38.61
66857;BME280;53766;50.280;19.160;2023-04-28T10:17:39;98687.97;;;18.00;38.55
66857;BME280;53766;50.280;19.160;2023-04-28T10:20:07;98681.81;;;18.00;38.47
66857;BME280;53766;50.280;19.160;2023-04-28T10:25:30;98692.31;;;18.01;38.51
66857;BME280;53766;50.280;19.160;2023-04-28T10:27:59;98685.31;;;18.00;38.57
66857;BME280;53766;50.280;19.160;2023-04-28T10:30:27;98686.56;;;18.04;38.67
66857;BME280;53766;50.280;19.160;2023-04-28T10:35:44;98673.25;;;18.04;38.65
66857;BME280;53766;50.280;19.160;2023-04-28T10:43:32;98664.47;;;18.11;38.54
66857;BME280;53766;50.280;19.160;2023-04-28T10:46:01;98656.28;;;18.12;38.52
66857;BME280;53766;50.280;19.160;2023-04-28T10:56:16;98647.44;;;18.12;38.64
66857;BME280;53766;50.280;19.160;2023-04-28T10:58:49;98631.88;;;18.15;38.57
66857;BME280;53766;50.280;19.160;2023-04-28T11:06:22;98627.78;;;18.13;38.64
66857;BME280;53766;50.280;19.160;2023-04-28T11:08:55;98623.69;;;18.17;38.58
66857;BME280;53766;50.280;19.160;2023-04-28T11:16:53;98612.25;;;18.23;38.46
66857;BME280;53766;50.280;19.160;2023-04-28T11:19:25;98611.00;;;18.19;38.57
66857;BME280;53766;50.280;19.160;2023-04-28T11:21:58;98608.13;;;18.20;38.43
66857;BME280;53766;50.280;19.160;2023-04-28T11:24:27;98613.25;;;18.22;38.45
66857;BME280;53766;50.280;19.160;2023-04-28T11:26:58;98604.03;;;18.24;38.54
66857;BME280;53766;50.280;19.160;2023-04-28T11:32:04;98592.19;;;18.27;38.52
66857;BME280;53766;50.280;19.160;2023-04-28T11:34:32;98593.81;;;18.28;38.40
66857;BME280;53766;50.280;19.160;2023-04-28T11:37:00;98591.75;;;18.30;38.54
66857;BME280;53766;50.280;19.160;2023-04-28T11:39:29;98591.75;;;18.30;38.52
66857;BME280;53766;50.280;19.160;2023-04-28T11:42:01;98591.34;;;18.33;38.39
66857;BME280;53766;50.280;19.160;2023-04-28T11:44:29;98585.41;;;18.31;38.50
66857;BME280;53766;50.280;19.160;2023-04-28T11:46:59;98584.78;;;18.29;38.56
66857;BME280;53766;50.280;19.160;2023-04-28T11:49:46;98583.56;;;18.32;38.58
66857;BME280;53766;50.280;19.160;2023-04-28T11:52:15;98571.69;;;18.34;38.59
66857;BME280;53766;50.280;19.160;2023-04-28T11:54:42;98582.72;;;18.31;38.53
66857;BME280;53766;50.280;19.160;2023-04-28T11:57:20;98575.78;;;18.30;38.74
66857;BME280;53766;50.280;19.160;2023-04-28T11:59:48;98573.72;;;18.32;38.61
66857;BME280;53766;50.280;19.160;2023-04-28T12:02:26;98570.25;;;18.32;38.62
66857;BME280;53766;50.280;19.160;2023-04-28T12:04:55;98563.44;;;18.29;38.48
66857;BME280;53766;50.280;19.160;2023-04-28T12:07:23;98567.16;;;18.28;38.44
66857;BME280;53766;50.280;19.160;2023-04-28T12:10:11;98564.69;;;18.33;38.59
66857;BME280;53766;50.280;19.160;2023-04-28T12:12:39;98557.13;;;18.37;38.49
66857;BME280;53766;50.280;19.160;2023-04-28T12:15:19;98558.56;;;18.39;38.49
66857;BME280;53766;50.280;19.160;2023-04-28T12:18:10;98557.56;;;18.40;38.38
66857;BME280;53766;50.280;19.160;2023-04-28T12:20:38;98544.59;;;18.37;38.57
66857;BME280;53766;50.280;19.160;2023-04-28T12:23:06;98532.31;;;18.36;38.61
66857;BME280;53766;50.280;19.160;2023-04-28T12:25:44;98538.88;;;18.40;38.51
66857;BME280;53766;50.280;19.160;2023-04-28T12:28:12;98536.22;;;18.40;38.63
66857;BME280;53766;50.280;19.160;2023-04-28T12:30:40;98533.13;;;18.43;38.45
66857;BME280;53766;50.280;19.160;2023-04-28T12:33:27;98535.81;;;18.43;38.55
66857;BME280;53766;50.280;19.160;2023-04-28T12:35:56;98527.63;;;18.45;38.54
66857;BME280;53766;50.280;19.160;2023-04-28T12:38:25;98526.56;;;18.46;38.46
66857;BME280;53766;50.280;19.160;2023-04-28T12:40:52;98514.06;;;18.46;38.37
66857;BME280;53766;50.280;19.160;2023-04-28T12:43:20;98506.69;;;18.48;38.45
66857;BME280;53766;50.280;19.160;2023-04-28T12:45:50;98499.53;;;18.49;38.50
66857;BME280;53766;50.280;19.160;2023-04-28T12:48:20;98501.97;;;18.50;38.41
66857;BME280;53766;50.280;19.160;2023-04-28T12:50:48;98497.66;;;18.49;38.42
66857;BME280;53766;50.280;19.160;2023-04-28T12:53:15;98499.28;;;18.50;38.53
66857;BME280;53766;50.280;19.160;2023-04-28T12:55:43;98502.81;;;18.51;38.50
66857;BME280;53766;50.280;19.160;2023-04-28T12:58:10;98496.63;;;18.50;38.53
66857;BME280;53766;50.280;19.160;2023-04-28T13:00:37;98483.91;;;18.53;38.40
66857;BME280;53766;50.280;19.160;2023-04-28T13:03:05;98482.47;;;18.50;38.59
66857;BME280;53766;50.280;19.160;2023-04-28T13:05:33;98478.56;;;18.53;38.32
66857;BME280;53766;50.280;19.160;2023-04-28T13:08:01;98474.91;;;18.54;38.31
66857;BME280;53766;50.280;19.160;2023-04-28T13:10:28;98480.84;;;18.56;38.50
66857;BME280;53766;50.280;19.160;2023-04-28T13:12:56;98482.47;;;18.57;38.25
66857;BME280;53766;50.280;19.160;2023-04-28T13:15:23;98476.16;;;18.58;38.48
66857;BME280;53766;50.280;19.160;2023-04-28T13:17:51;98464.63;;;18.57;38.49
66857;BME280;53766;50.280;19.160;2023-04-28T13:20:18;98465.47;;;18.58;38.53
66857;BME280;53766;50.280;19.160;2023-04-28T13:22:46;98471.44;;;18.60;38.50
66857;BME280;53766;50.280;19.160;2023-04-28T13:25:13;98465.06;;;18.61;38.46
66857;BME280;53766;50.280;19.160;2023-04-28T13:27:41;98467.72;;;18.61;38.37
66857;BME280;53766;50.280;19.160;2023-04-28T13:30:10;98469.38;;;18.62;38.16